Time;durP1;ratioP1;P1;durP2;ratioP2;P2;SDS_P1;SDS_P2;PMS_P1;PMS_P2;Temp;Humidity;BMP_temperature;BMP_pressure;BME280_temperature;BME280_humidity;BME280_pressure;Samples;Min_cycle;Max_cycle;Signal;HPM_P1;HPM_P2
2023/12/07 00:01:19;;;;;;;18.42;10.20;;;1.70;99.90;;;;;;5052273;28;20033;-64
2023/12/07 00:03:44;;;;;;;18.10;10.88;;;1.70;99.90;;;;;;5052623;28;20033;-63
2023/12/07 00:06:10;;;;;;;16.08;10.07;;;1.70;99.90;;;;;;5052173;28;20035;-63
2023/12/07 00:08:35;;;;;;;17.25;10.43;;;1.70;99.90;;;;;;5051282;28;20069;-63
2023/12/07 00:11:01;;;;;;;17.23;10.00;;;1.60;99.90;;;;;;5034514;28;20083;-63
2023/12/07 00:13:27;;;;;;;18.45;10.25;;;1.70;99.90;;;;;;5052288;28;20041;-64
2023/12/07 00:15:52;;;;;;;17.33;10.77;;;1.60;99.90;;;;;;5051420;28;20041;-63
2023/12/07 00:18:18;;;;;;;18.73;10.82;;;1.60;99.90;;;;;;5052183;28;20381;-63
2023/12/07 00:20:44;;;;;;;19.13;10.13;;;1.60;99.90;;;;;;5049874;28;20445;-62
2023/12/07 00:23:10;;;;;;;17.67;11.10;;;1.60;99.90;;;;;;5050621;28;20120;-63
2023/12/07 00:25:36;;;;;;;19.35;11.10;;;1.60;99.90;;;;;;5051650;28;20033;-63
2023/12/07 00:28:03;;;;;;;17.58;10.80;;;1.60;99.90;;;;;;5033337;28;20502;-62
2023/12/07 00:30:29;;;;;;;19.58;10.23;;;1.60;99.90;;;;;;5047988;28;20036;-63
2023/12/07 00:32:55;;;;;;;16.92;10.18;;;1.60;99.90;;;;;;5017479;28;20075;-63
2023/12/07 00:35:22;;;;;;;20.63;11.70;;;1.60;99.90;;;;;;5050248;28;20091;-62
2023/12/07 00:37:48;;;;;;;19.50;10.50;;;1.60;99.90;;;;;;5051911;28;20055;-65
2023/12/07 00:40:14;;;;;;;20.38;10.82;;;1.60;99.90;;;;;;5049584;28;20041;-64
2023/12/07 00:42:40;;;;;;;18.17;11.20;;;1.50;99.90;;;;;;5033420;28;20060;-63
2023/12/07 00:45:06;;;;;;;18.42;11.45;;;1.50;99.90;;;;;;5031380;28;20072;-64
2023/12/07 00:47:31;;;;;;;18.67;11.32;;;1.50;99.90;;;;;;5046859;28;20072;-62
2023/12/07 00:49:57;;;;;;;18.85;11.88;;;1.50;99.90;;;;;;5049425;28;20037;-62
2023/12/07 00:52:22;;;;;;;21.10;12.30;;;1.50;99.90;;;;;;5050844;28;20032;-62
2023/12/07 00:54:48;;;;;;;19.20;11.38;;;1.50;99.90;;;;;;5036978;28;20086;-63
2023/12/07 00:57:14;;;;;;;19.00;12.02;;;1.50;99.90;;;;;;5045513;28;20391;-63
2023/12/07 00:59:39;;;;;;;18.73;11.07;;;1.50;99.90;;;;;;5050300;28;20041;-62
2023/12/07 01:02:06;;;;;;;21.52;11.80;;;1.50;99.90;;;;;;5043601;28;20075;-62
2023/12/07 01:04:33;;;;;;;20.05;11.88;;;1.50;99.90;;;;;;5050978;28;20037;-62
2023/12/07 01:06:58;;;;;;;21.00;12.63;;;1.50;99.90;;;;;;5051021;28;20070;-63
2023/12/07 01:09:25;;;;;;;19.35;11.68;;;1.50;99.90;;;;;;5050273;28;20076;-63
2023/12/07 01:11:51;;;;;;;22.05;12.68;;;1.50;99.90;;;;;;5047040;28;20051;-64
2023/12/07 01:14:17;;;;;;;21.63;12.20;;;1.50;99.90;;;;;;5051352;28;20043;-63
2023/12/07 01:16:43;;;;;;;24.02;12.80;;;1.40;99.90;;;;;;5040998;28;20033;-62
2023/12/07 01:19:10;;;;;;;21.67;12.50;;;1.40;99.90;;;;;;5048813;28;20037;-62
2023/12/07 01:21:35;;;;;;;21.35;12.20;;;1.40;99.90;;;;;;5050979;28;20400;-62
2023/12/07 01:24:01;;;;;;;21.35;12.48;;;1.40;99.90;;;;;;5051078;28;20043;-62
2023/12/07 01:26:27;;;;;;;23.92;11.93;;;1.40;99.90;;;;;;5050648;28;20037;-62
2023/12/07 01:28:53;;;;;;;20.20;12.20;;;1.40;99.90;;;;;;5050450;28;20032;-63
2023/12/07 01:31:19;;;;;;;19.83;12.13;;;1.30;99.90;;;;;;5050647;28;20029;-62
2023/12/07 01:33:44;;;;;;;23.15;12.63;;;1.30;99.90;;;;;;5043775;28;20119;-62
2023/12/07 01:36:11;;;;;;;20.98;12.00;;;1.30;99.90;;;;;;5049377;28;20072;-62
2023/12/07 01:38:36;;;;;;;22.45;13.02;;;1.30;99.90;;;;;;5048927;28;20044;-62
2023/12/07 01:41:02;;;;;;;24.17;13.77;;;1.30;99.90;;;;;;5030451;28;20044;-62
2023/12/07 01:43:28;;;;;;;20.25;12.15;;;1.30;99.90;;;;;;5049735;28;20032;-62
2023/12/07 01:45:56;;;;;;;23.25;13.98;;;1.30;99.90;;;;;;5046267;28;20041;-62
2023/12/07 01:48:26;;;;;;;22.08;13.52;;;1.30;99.90;;;;;;5031595;28;20373;-62
2023/12/07 01:50:53;;;;;;;22.27;12.80;;;1.30;99.90;;;;;;5049752;28;20090;-63
2023/12/07 01:53:21;;;;;;;22.08;13.13;;;1.30;99.90;;;;;;5048728;28;20029;-61
2023/12/07 01:55:47;;;;;;;20.42;12.10;;;1.30;99.90;;;;;;5049511;28;20037;-62
2023/12/07 01:58:14;;;;;;;22.67;12.75;;;1.30;99.90;;;;;;5050567;28;20091;-62
2023/12/07 02:00:40;;;;;;;24.23;13.05;;;1.20;99.90;;;;;;5049887;28;20036;-62
2023/12/07 02:03:06;;;;;;;23.60;12.95;;;1.20;99.90;;;;;;5049863;28;20044;-62
2023/12/07 02:05:32;;;;;;;21.08;12.60;;;1.20;99.90;;;;;;5032262;28;20093;-61
2023/12/07 02:07:58;;;;;;;20.20;12.00;;;1.20;99.90;;;;;;5048670;28;20064;-63
2023/12/07 02:10:24;;;;;;;20.08;11.98;;;1.20;99.90;;;;;;5050291;28;20492;-62
2023/12/07 02:12:52;;;;;;;23.88;13.43;;;1.10;99.90;;;;;;5049562;28;20045;-63
2023/12/07 02:15:19;;;;;;;24.10;12.85;;;1.10;99.90;;;;;;5046925;28;20115;-63
2023/12/07 02:18:06;;;;;;;22.90;12.75;;;1.10;99.90;;;;;;5044557;28;20052;-62
2023/12/07 02:20:42;;;;;;;27.00;13.57;;;1.10;99.90;;;;;;5038567;28;20033;-61
2023/12/07 02:23:09;;;;;;;23.98;13.48;;;1.10;99.90;;;;;;5042910;28;20542;-63
2023/12/07 02:25:51;;;;;;;21.88;12.95;;;1.00;99.90;;;;;;5046418;28;20111;-62
2023/12/07 02:28:17;;;;;;;23.75;13.43;;;1.00;99.90;;;;;;5042238;28;20029;-63
2023/12/07 02:30:43;;;;;;;21.98;12.52;;;1.00;99.90;;;;;;5049657;28;20033;-62
2023/12/07 02:33:08;;;;;;;23.63;13.20;;;1.00;99.90;;;;;;5049538;28;20047;-61
2023/12/07 02:35:36;;;;;;;23.60;13.30;;;1.00;99.90;;;;;;5041542;28;20037;-62
2023/12/07 02:38:03;;;;;;;25.17;13.18;;;0.90;99.90;;;;;;5049161;28;20036;-61
2023/12/07 02:40:29;;;;;;;23.42;12.02;;;1.00;99.90;;;;;;5050019;28;20079;-61
2023/12/07 02:42:56;;;;;;;24.92;12.85;;;0.90;99.90;;;;;;5048999;28;20041;-63
2023/12/07 02:45:22;;;;;;;22.83;12.68;;;0.90;99.90;;;;;;5049706;28;20037;-62
2023/12/07 02:47:48;;;;;;;21.90;11.85;;;0.90;99.90;;;;;;5047376;28;20590;-63
2023/12/07 02:50:14;;;;;;;20.25;11.43;;;0.90;99.90;;;;;;5045221;28;20025;-62
2023/12/07 02:52:40;;;;;;;20.70;11.95;;;0.80;99.90;;;;;;5043530;28;20045;-62
2023/12/07 02:55:06;;;;;;;22.75;11.73;;;0.90;99.90;;;;;;5048721;28;20383;-62
2023/12/07 02:57:35;;;;;;;21.17;11.30;;;0.80;99.90;;;;;;5031126;28;20048;-62
2023/12/07 03:00:01;;;;;;;22.17;12.57;;;0.80;99.90;;;;;;5047510;28;20033;-62
2023/12/07 03:02:26;;;;;;;19.52;12.05;;;0.80;99.90;;;;;;5049249;28;20047;-61
2023/12/07 03:04:52;;;;;;;23.05;12.13;;;0.80;99.90;;;;;;5047988;28;20033;-62
2023/12/07 03:07:18;;;;;;;22.25;12.48;;;0.80;99.90;;;;;;5031581;28;20037;-62
2023/12/07 03:09:43;;;;;;;21.73;12.35;;;0.80;99.90;;;;;;5049460;28;20033;-63
2023/12/07 03:12:09;;;;;;;18.40;11.02;;;0.80;99.90;;;;;;5051342;28;20040;-62
2023/12/07 03:14:35;;;;;;;22.02;12.60;;;0.80;99.90;;;;;;5051265;28;20052;-62
2023/12/07 03:17:00;;;;;;;25.98;12.73;;;0.70;99.90;;;;;;5035274;28;20119;-63
2023/12/07 03:19:26;;;;;;;23.80;13.65;;;0.70;99.90;;;;;;5051257;28;20037;-62
2023/12/07 03:21:51;;;;;;;23.67;12.90;;;0.70;99.90;;;;;;5052509;28;20041;-62
2023/12/07 03:24:17;;;;;;;22.17;12.80;;;0.70;99.90;;;;;;5047042;28;20119;-62
2023/12/07 03:26:42;;;;;;;24.90;14.15;;;0.70;99.90;;;;;;5030117;28;20036;-62
2023/12/07 03:29:08;;;;;;;23.48;13.15;;;0.70;99.90;;;;;;5051701;28;20166;-62
2023/12/07 03:31:34;;;;;;;22.95;13.40;;;0.70;99.90;;;;;;5053255;28;20040;-62
2023/12/07 03:34:01;;;;;;;24.85;13.75;;;0.70;99.90;;;;;;5052739;28;20444;-62
2023/12/07 03:36:27;;;;;;;24.27;14.23;;;0.70;99.90;;;;;;5052267;28;20040;-62
2023/12/07 03:38:52;;;;;;;25.17;12.80;;;0.70;99.90;;;;;;5029312;28;20048;-63
2023/12/07 03:41:18;;;;;;;22.83;13.35;;;0.70;99.90;;;;;;5052957;28;20588;-62
2023/12/07 03:43:44;;;;;;;24.95;14.45;;;0.70;99.90;;;;;;5034502;28;20073;-62
2023/12/07 03:46:09;;;;;;;26.08;14.73;;;0.70;99.90;;;;;;5050031;28;20029;-63
2023/12/07 03:48:35;;;;;;;22.40;13.18;;;0.60;99.90;;;;;;5052742;28;20036;-62
2023/12/07 03:51:01;;;;;;;24.42;13.48;;;0.60;99.90;;;;;;5048720;28;20033;-62
2023/12/07 03:53:27;;;;;;;25.98;13.73;;;0.60;99.90;;;;;;5060809;22;20033;-74
2023/12/07 03:55:53;;;;;;;25.33;14.23;;;0.70;99.90;;;;;;5021135;28;20037;-74
2023/12/07 03:58:19;;;;;;;27.10;14.65;;;0.70;99.90;;;;;;5023578;28;20028;-74
2023/12/07 04:00:45;;;;;;;23.00;13.48;;;0.60;99.90;;;;;;5020898;28;20029;-74
2023/12/07 04:03:11;;;;;;;19.48;11.73;;;1.40;99.90;;;;;;5055369;28;20044;-75
2023/12/07 04:05:38;;;;;;;18.70;10.73;;;0.60;99.90;;;;;;5012943;28;20032;-74
2023/12/07 04:08:05;;;;;;;20.77;12.27;;;0.60;99.90;;;;;;5050528;28;20082;-74
2023/12/07 04:10:31;;;;;;;24.02;14.02;;;0.60;99.90;;;;;;5046862;28;20036;-74
2023/12/07 04:12:59;;;;;;;26.95;14.50;;;0.60;99.90;;;;;;5032125;28;20072;-74
2023/12/07 04:15:25;;;;;;;27.17;15.20;;;0.60;99.90;;;;;;5050591;28;20497;-74
2023/12/07 04:17:51;;;;;;;28.02;15.32;;;0.70;99.90;;;;;;5052744;28;20040;-74
2023/12/07 04:20:21;;;;;;;26.15;15.57;;;0.70;99.90;;;;;;5034528;28;20041;-74
2023/12/07 04:22:47;;;;;;;24.50;14.10;;;0.70;99.90;;;;;;5035616;28;20332;-74
2023/12/07 04:25:14;;;;;;;26.38;15.80;;;0.80;99.90;;;;;;5013924;28;20033;-74
2023/12/07 04:27:40;;;;;;;30.70;15.30;;;0.80;99.90;;;;;;5053930;28;20040;-74
2023/12/07 04:30:06;;;;;;;25.25;15.20;;;0.80;99.90;;;;;;5052623;28;20044;-74
2023/12/07 04:32:35;;;;;;;30.80;15.55;;;0.80;99.90;;;;;;5024543;28;20457;-74
2023/12/07 04:35:00;;;;;;;28.38;15.40;;;0.80;99.90;;;;;;5035035;28;20537;-74
2023/12/07 04:37:27;;;;;;;29.83;16.05;;;0.80;99.90;;;;;;5035906;28;20036;-74
2023/12/07 04:39:53;;;;;;;28.15;15.50;;;0.90;99.90;;;;;;5036106;28;20413;-74
2023/12/07 04:42:18;;;;;;;29.17;16.00;;;0.90;99.90;;;;;;5034328;28;20036;-74
2023/12/07 04:44:44;;;;;;;29.60;16.05;;;0.90;99.90;;;;;;5034383;28;20565;-74
2023/12/07 04:47:09;;;;;;;26.98;15.02;;;0.80;99.90;;;;;;5052593;28;20549;-74
2023/12/07 04:49:35;;;;;;;32.92;16.92;;;0.80;99.90;;;;;;5036170;28;20055;-74
2023/12/07 04:52:01;;;;;;;27.48;15.82;;;0.80;99.90;;;;;;5033480;28;20079;-74
2023/12/07 04:54:27;;;;;;;28.73;16.25;;;0.80;99.90;;;;;;5036234;28;20390;-75
2023/12/07 04:56:54;;;;;;;32.35;16.65;;;0.80;99.90;;;;;;5015957;28;20052;-75
2023/12/07 04:59:20;;;;;;;31.05;16.70;;;0.80;99.90;;;;;;5018184;28;20029;-74
2023/12/07 05:01:47;;;;;;;26.48;15.63;;;0.90;99.90;;;;;;5028802;28;20037;-74
2023/12/07 05:04:12;;;;;;;32.20;17.10;;;0.90;99.90;;;;;;5033523;28;20047;-75
2023/12/07 05:06:38;;;;;;;29.08;16.02;;;0.90;99.90;;;;;;5046129;28;20116;-74
2023/12/07 05:09:03;;;;;;;27.70;16.13;;;0.90;99.90;;;;;;5050653;28;20063;-74
2023/12/07 05:11:29;;;;;;;31.52;17.05;;;0.90;99.90;;;;;;5052639;28;20095;-74
2023/12/07 05:13:55;;;;;;;29.02;16.10;;;0.90;99.90;;;;;;5035374;28;20133;-74
2023/12/07 05:16:22;;;;;;;28.70;15.95;;;0.90;99.90;;;;;;5051441;28;20166;-74
2023/12/07 05:18:49;;;;;;;29.92;15.77;;;0.90;99.90;;;;;;5029920;28;20045;-75
2023/12/07 05:21:14;;;;;;;30.95;15.43;;;0.90;99.90;;;;;;5033205;28;20378;-74
2023/12/07 05:23:40;;;;;;;30.05;16.17;;;0.90;99.90;;;;;;5051668;28;20272;-74
2023/12/07 05:26:07;;;;;;;29.45;16.45;;;0.90;99.90;;;;;;5050433;28;20114;-74
2023/12/07 05:28:33;;;;;;;29.02;16.35;;;0.90;99.90;;;;;;5018363;28;20037;-75
2023/12/07 05:31:03;;;;;;;28.77;15.57;;;0.90;99.90;;;;;;5034883;28;20470;-74
2023/12/07 05:33:29;;;;;;;28.52;16.30;;;0.90;99.90;;;;;;5032981;28;20078;-74
2023/12/07 05:35:55;;;;;;;28.08;15.98;;;0.90;99.90;;;;;;5025568;28;20041;-74
2023/12/07 05:38:20;;;;;;;28.30;16.00;;;1.00;99.90;;;;;;5027030;28;20075;-74
2023/12/07 05:40:46;;;;;;;26.13;15.70;;;1.00;99.90;;;;;;5046007;28;20040;-75
2023/12/07 05:43:11;;;;;;;29.08;15.70;;;1.00;99.90;;;;;;5044075;28;20497;-74
2023/12/07 05:45:37;;;;;;;30.00;15.93;;;0.90;99.90;;;;;;5027826;28;20051;-74
2023/12/07 05:48:02;;;;;;;28.50;16.73;;;0.90;99.90;;;;;;5024477;28;20073;-74
2023/12/07 05:50:28;;;;;;;27.05;14.90;;;1.00;99.90;;;;;;5028166;28;20052;-74
2023/12/07 05:52:55;;;;;;;29.30;15.82;;;0.90;99.90;;;;;;5033724;28;20037;-74
2023/12/07 05:55:20;;;;;;;29.15;15.93;;;0.90;99.90;;;;;;5019463;28;20041;-74
2023/12/07 05:57:46;;;;;;;27.55;14.73;;;0.90;99.90;;;;;;5036924;28;20041;-74
2023/12/07 06:00:12;;;;;;;27.05;15.00;;;0.90;99.90;;;;;;5035242;28;20041;-74
2023/12/07 06:02:38;;;;;;;25.52;15.25;;;0.90;99.90;;;;;;5034918;28;20060;-75
2023/12/07 06:05:04;;;;;;;28.48;15.60;;;0.90;99.90;;;;;;5051414;28;20731;-74
2023/12/07 06:07:30;;;;;;;28.88;14.93;;;0.90;99.90;;;;;;5027414;28;20063;-73
2023/12/07 06:09:56;;;;;;;28.35;15.18;;;0.90;99.90;;;;;;5028213;28;20478;-74
2023/12/07 06:12:21;;;;;;;25.65;14.13;;;0.90;99.90;;;;;;5048579;28;20067;-74
2023/12/07 06:14:48;;;;;;;26.77;14.85;;;0.90;99.90;;;;;;5032421;28;20048;-74
2023/12/07 06:17:14;;;;;;;27.30;14.80;;;0.90;99.90;;;;;;5032944;28;20041;-74
2023/12/07 06:19:40;;;;;;;28.00;14.75;;;0.90;99.90;;;;;;5051178;28;20087;-74
2023/12/07 06:22:06;;;;;;;29.13;14.68;;;0.90;99.90;;;;;;5048980;28;20037;-74
2023/12/07 06:24:35;;;;;;;28.48;15.68;;;0.90;99.90;;;;;;5015848;28;20033;-74
2023/12/07 06:27:02;;;;;;;24.27;13.85;;;0.90;99.90;;;;;;5016843;28;20363;-74
2023/12/07 06:29:29;;;;;;;28.02;15.48;;;0.90;99.90;;;;;;5032578;28;20086;-74
2023/12/07 06:31:54;;;;;;;27.45;15.55;;;0.90;99.90;;;;;;5050086;28;20405;-75
2023/12/07 06:34:20;;;;;;;27.73;15.30;;;0.90;99.90;;;;;;5030733;28;20037;-74
2023/12/07 06:36:45;;;;;;;29.20;15.30;;;0.80;99.90;;;;;;5033718;28;20494;-74
2023/12/07 06:39:11;;;;;;;28.98;15.88;;;0.80;99.90;;;;;;5033150;28;20115;-74
2023/12/07 06:41:37;;;;;;;28.88;15.48;;;0.80;99.90;;;;;;5009355;28;20033;-74
2023/12/07 06:44:02;;;;;;;28.05;16.00;;;0.80;99.90;;;;;;5009648;28;20132;-74
2023/12/07 06:46:29;;;;;;;28.48;15.50;;;0.80;99.90;;;;;;5044320;28;20041;-75
2023/12/07 06:48:55;;;;;;;32.38;16.88;;;0.80;99.90;;;;;;5014913;28;20448;-74
2023/12/07 06:51:20;;;;;;;28.65;15.95;;;0.80;99.90;;;;;;5012788;28;20106;-75
2023/12/07 06:53:46;;;;;;;31.83;15.63;;;0.80;99.90;;;;;;5029235;28;20051;-74
2023/12/07 06:56:12;;;;;;;29.30;15.20;;;0.80;99.90;;;;;;5047502;28;20058;-74
2023/12/07 06:58:37;;;;;;;28.95;14.27;;;0.70;99.90;;;;;;5052675;28;20065;-73
2023/12/07 07:01:03;;;;;;;25.55;14.73;;;0.70;99.90;;;;;;5050981;28;20040;-74
2023/12/07 07:03:28;;;;;;;29.27;15.77;;;0.70;99.90;;;;;;5032535;28;20318;-73
2023/12/07 07:05:55;;;;;;;25.15;14.70;;;0.70;99.90;;;;;;5036607;28;20037;-73
2023/12/07 07:08:20;;;;;;;27.65;15.70;;;0.60;99.90;;;;;;5051474;28;20036;-74
2023/12/07 07:10:49;;;;;;;30.77;15.43;;;0.60;99.90;;;;;;5034147;28;20048;-74
2023/12/07 07:13:16;;;;;;;32.05;15.68;;;0.60;99.90;;;;;;5019739;28;20037;-73
2023/12/07 07:15:43;;;;;;;27.48;15.70;;;0.60;99.90;;;;;;5047467;28;20489;-74
2023/12/07 07:18:09;;;;;;;26.85;14.77;;;0.60;99.90;;;;;;5028459;28;20067;-75
2023/12/07 07:20:35;;;;;;;32.03;15.38;;;0.50;99.90;;;;;;5048991;28;20402;-75
2023/12/07 07:23:00;;;;;;;27.95;15.10;;;0.60;99.90;;;;;;5045018;28;20488;-74
2023/12/07 07:25:26;;;;;;;30.88;15.73;;;0.50;99.90;;;;;;5025719;28;20039;-73
2023/12/07 07:27:53;;;;;;;27.98;16.08;;;0.50;99.90;;;;;;5043976;28;20065;-73
2023/12/07 07:30:19;;;;;;;27.60;15.65;;;0.50;99.90;;;;;;5048991;28;20047;-75
2023/12/07 07:32:45;;;;;;;30.80;17.05;;;0.50;99.90;;;;;;5030806;28;20033;-74
2023/12/07 07:35:11;;;;;;;33.03;17.73;;;0.50;99.90;;;;;;5029744;28;20107;-73
2023/12/07 07:37:41;;;;;;;29.02;17.17;;;0.70;99.90;;;;;;5049637;28;20087;-74
2023/12/07 07:40:11;;;;;;;31.98;16.83;;;0.50;99.90;;;;;;5052470;28;20049;-74
2023/12/07 07:42:39;;;;;;;29.75;17.33;;;0.50;99.90;;;;;;5050685;28;20124;-73
2023/12/07 07:45:07;;;;;;;29.98;16.80;;;0.50;99.90;;;;;;5029151;28;20623;-73
2023/12/07 07:47:34;;;;;;;27.73;16.45;;;0.50;99.90;;;;;;5015791;28;20144;-73
2023/12/07 07:50:04;;;;;;;26.95;16.48;;;0.50;99.90;;;;;;5050861;28;20033;-75
2023/12/07 07:52:31;;;;;;;30.65;17.38;;;0.40;99.90;;;;;;5015706;28;20039;-74
2023/12/07 07:54:56;;;;;;;27.52;16.60;;;0.40;99.90;;;;;;5031617;28;20053;-74
2023/12/07 07:57:22;;;;;;;30.52;17.15;;;0.50;99.90;;;;;;5029311;28;20077;-73
2023/12/07 07:59:47;;;;;;;29.23;17.15;;;0.40;99.90;;;;;;5043693;28;20044;-74
2023/12/07 08:02:13;;;;;;;29.88;17.23;;;0.50;99.90;;;;;;5027918;28;20047;-73
2023/12/07 08:04:38;;;;;;;31.80;17.63;;;0.40;99.90;;;;;;5048992;28;20053;-73
2023/12/07 08:07:04;;;;;;;30.65;16.92;;;0.50;99.90;;;;;;5011505;28;20040;-73
2023/12/07 08:09:29;;;;;;;32.40;17.60;;;0.50;99.90;;;;;;5036966;28;20106;-73
2023/12/07 08:11:56;;;;;;;33.20;17.98;;;0.50;99.90;;;;;;5053683;28;20037;-73
2023/12/07 08:14:22;;;;;;;34.22;18.98;;;0.50;99.90;;;;;;5032022;28;20055;-73
2023/12/07 08:16:47;;;;;;;32.88;18.73;;;0.50;99.90;;;;;;5028337;28;20041;-73
2023/12/07 08:19:13;;;;;;;36.10;19.13;;;0.50;99.90;;;;;;5027120;28;20520;-74
2023/12/07 08:21:39;;;;;;;38.03;20.58;;;0.50;99.90;;;;;;5010059;28;20040;-73
2023/12/07 08:24:05;;;;;;;34.90;18.80;;;0.50;99.90;;;;;;5044657;28;20407;-73
2023/12/07 08:26:31;;;;;;;33.95;18.77;;;0.50;99.90;;;;;;5041942;28;20045;-73
2023/12/07 08:28:57;;;;;;;32.92;19.05;;;0.50;99.90;;;;;;5033233;28;20045;-73
2023/12/07 08:31:23;;;;;;;36.03;19.55;;;0.50;99.90;;;;;;5048540;28;20064;-73
2023/12/07 08:33:50;;;;;;;39.30;20.13;;;0.60;99.90;;;;;;5034713;28;20049;-74
2023/12/07 08:36:16;;;;;;;40.67;21.17;;;0.60;99.90;;;;;;5024489;28;20037;-74
2023/12/07 08:38:42;;;;;;;49.10;21.65;;;0.70;99.90;;;;;;5050714;28;20041;-73
2023/12/07 08:41:07;;;;;;;50.40;23.45;;;0.60;99.90;;;;;;5034042;28;20056;-74
2023/12/07 08:43:33;;;;;;;104.78;22.67;;;0.70;99.90;;;;;;5013817;28;20041;-73
2023/12/07 08:46:03;;;;;;;66.82;22.33;;;0.70;99.90;;;;;;5050544;28;20062;-73
2023/12/07 08:48:29;;;;;;;39.13;21.92;;;0.70;99.90;;;;;;5033280;28;20159;-74
2023/12/07 08:50:54;;;;;;;79.35;21.83;;;0.70;99.90;;;;;;5035606;28;20127;-74
2023/12/07 08:53:20;;;;;;;39.70;20.60;;;0.70;99.90;;;;;;5052578;28;20064;-74
2023/12/07 08:55:46;;;;;;;39.35;20.45;;;0.70;99.90;;;;;;5052329;28;20209;-73
2023/12/07 08:58:11;;;;;;;53.42;21.02;;;0.70;99.90;;;;;;5017877;28;20128;-74
2023/12/07 09:00:38;;;;;;;71.10;20.50;;;0.70;99.90;;;;;;5051589;28;20086;-73
2023/12/07 09:03:03;;;;;;;37.25;19.42;;;0.70;99.90;;;;;;5052067;28;20045;-73
2023/12/07 09:05:29;;;;;;;40.00;19.10;;;0.70;99.90;;;;;;5033771;28;20119;-74
2023/12/07 09:07:56;;;;;;;42.20;19.05;;;0.70;99.90;;;;;;5044869;28;20102;-73
2023/12/07 09:10:22;;;;;;;46.88;18.75;;;0.70;99.90;;;;;;5034059;28;20040;-73
2023/12/07 09:12:48;;;;;;;31.50;17.98;;;0.70;99.90;;;;;;5039469;28;20112;-74
2023/12/07 09:15:13;;;;;;;34.55;19.13;;;0.70;99.90;;;;;;5034006;28;20124;-74
2023/12/07 09:17:39;;;;;;;31.27;18.33;;;0.70;99.90;;;;;;5039877;28;20456;-73
2023/12/07 09:20:14;;;;;;;46.20;19.00;;;0.70;99.90;;;;;;5052366;28;20033;-73
2023/12/07 09:22:44;;;;;;;37.17;17.60;;;0.70;99.90;;;;;;5034094;28;20110;-73
2023/12/07 09:25:11;;;;;;;32.10;18.08;;;0.80;99.90;;;;;;5031887;28;20086;-73
2023/12/07 09:27:38;;;;;;;33.85;18.20;;;0.80;99.90;;;;;;5034202;28;20141;-74
2023/12/07 09:30:10;;;;;;;42.58;18.63;;;0.90;99.90;;;;;;5033906;28;20043;-72
2023/12/07 09:32:38;;;;;;;41.65;18.98;;;0.90;99.90;;;;;;5049966;28;20404;-75
2023/12/07 09:35:07;;;;;;;27.48;16.77;;;1.20;99.90;;;;;;5027571;28;20037;-72
2023/12/07 09:37:34;;;;;;;29.95;17.52;;;0.90;99.90;;;;;;5045812;28;20440;-73
2023/12/07 09:40:00;;;;;;;27.13;16.05;;;0.90;99.90;;;;;;5037227;28;20045;-72
2023/12/07 09:42:26;;;;;;;67.00;17.30;;;0.90;99.90;;;;;;5023037;28;20087;-73
2023/12/07 09:44:52;;;;;;;40.30;16.00;;;0.90;99.90;;;;;;5041070;28;20048;-72
2023/12/07 09:47:18;;;;;;;65.55;17.00;;;0.90;99.90;;;;;;5008705;28;20044;-72
2023/12/07 09:49:44;;;;;;;49.55;18.23;;;0.90;99.90;;;;;;5024815;28;20033;-73
2023/12/07 09:52:11;;;;;;;31.25;16.95;;;0.90;99.90;;;;;;5044388;28;20452;-72
2023/12/07 09:54:41;;;;;;;41.15;17.38;;;0.90;99.90;;;;;;5041318;28;20102;-72
2023/12/07 09:57:09;;;;;;;28.77;16.73;;;1.00;99.90;;;;;;5029555;28;20409;-72
2023/12/07 09:59:35;;;;;;;29.42;16.95;;;0.90;99.90;;;;;;5043532;28;20111;-72
2023/12/07 10:02:02;;;;;;;56.72;18.85;;;1.00;99.90;;;;;;5026516;28;20095;-72
2023/12/07 10:04:27;;;;;;;30.88;18.23;;;1.00;99.90;;;;;;5024484;28;20062;-72
2023/12/07 10:06:54;;;;;;;39.22;18.30;;;1.00;99.90;;;;;;5036860;28;20543;-71
2023/12/07 10:09:21;;;;;;;37.17;18.33;;;1.10;99.90;;;;;;5023646;28;20040;-71
2023/12/07 10:11:47;;;;;;;30.75;18.08;;;1.10;99.90;;;;;;5030546;28;20037;-71
2023/12/07 10:14:12;;;;;;;41.38;18.65;;;1.20;99.90;;;;;;5027439;28;20550;-71
2023/12/07 10:16:38;;;;;;;28.92;17.25;;;1.20;99.90;;;;;;5047228;28;20036;-71
2023/12/07 10:19:17;;;;;;;25.63;16.90;;;1.20;99.90;;;;;;5027632;28;20041;-72
2023/12/07 10:21:43;;;;;;;30.20;17.60;;;1.30;99.90;;;;;;5021900;28;20069;-71
2023/12/07 10:24:09;;;;;;;70.15;19.17;;;1.20;99.90;;;;;;5021972;28;20167;-71
2023/12/07 10:26:38;;;;;;;29.83;18.02;;;1.30;99.90;;;;;;5046739;28;20550;-71
2023/12/07 10:29:07;;;;;;;46.95;19.25;;;1.30;99.90;;;;;;5047335;28;20041;-71
2023/12/07 10:31:33;;;;;;;34.72;19.02;;;1.30;99.90;;;;;;5043551;28;20516;-71
2023/12/07 10:34:00;;;;;;;32.33;19.42;;;1.30;99.90;;;;;;5047015;28;20053;-72
2023/12/07 10:36:26;;;;;;;36.95;18.30;;;1.30;99.90;;;;;;5043682;28;20123;-72
2023/12/07 10:38:53;;;;;;;33.70;19.50;;;1.30;99.90;;;;;;5031367;28;20801;-71
2023/12/07 10:41:20;;;;;;;36.03;21.13;;;1.30;99.90;;;;;;5038793;28;20037;-72
2023/12/07 10:43:51;;;;;;;35.50;20.05;;;1.40;99.90;;;;;;5026400;28;20033;-72
2023/12/07 10:46:19;;;;;;;86.57;20.63;;;1.40;99.90;;;;;;5036606;28;20041;-72
2023/12/07 10:48:47;;;;;;;37.17;19.33;;;1.40;99.90;;;;;;5016450;28;20056;-72
2023/12/07 10:51:22;;;;;;;32.72;19.75;;;1.40;99.90;;;;;;5041125;28;20049;-72
2023/12/07 10:53:50;;;;;;;75.13;20.05;;;1.40;99.90;;;;;;5046996;28;20033;-71
2023/12/07 10:56:29;;;;;;;47.40;19.35;;;1.40;99.90;;;;;;5045090;28;20524;-72
2023/12/07 10:58:56;;;;;;;93.32;20.95;;;1.50;99.90;;;;;;5030340;28;20163;-72
2023/12/07 11:01:23;;;;;;;30.02;17.80;;;1.50;99.90;;;;;;5029661;28;20040;-72
2023/12/07 11:03:52;;;;;;;32.00;19.48;;;1.40;99.90;;;;;;5048056;28;20041;-72
2023/12/07 11:06:19;;;;;;;33.28;18.23;;;1.40;99.90;;;;;;5046276;28;20474;-72
2023/12/07 11:08:58;;;;;;;30.33;18.05;;;1.40;99.90;;;;;;5044702;28;20033;-71
2023/12/07 11:11:42;;;;;;;33.75;18.95;;;1.40;99.90;;;;;;5015870;28;20045;-72
2023/12/07 11:14:12;;;;;;;30.73;18.30;;;1.40;99.90;;;;;;5030703;28;20125;-73
2023/12/07 11:16:43;;;;;;;33.10;19.00;;;1.40;99.90;;;;;;5047740;28;20044;-72
2023/12/07 11:19:35;;;;;;;32.08;19.17;;;1.50;99.90;;;;;;5048323;28;20095;-72
2023/12/07 11:22:06;;;;;;;37.70;18.00;;;1.50;99.90;;;;;;5044622;28;20051;-72
2023/12/07 11:24:32;;;;;;;49.03;19.02;;;1.50;99.90;;;;;;5045505;28;20404;-72
2023/12/07 11:26:58;;;;;;;43.03;18.30;;;1.50;99.90;;;;;;5048176;28;20037;-72
2023/12/07 11:29:29;;;;;;;29.40;18.17;;;1.50;99.90;;;;;;5029209;28;20033;-71
2023/12/07 11:32:06;;;;;;;32.15;18.90;;;1.50;99.90;;;;;;5035835;28;20037;-72
2023/12/07 11:34:39;;;;;;;32.03;18.83;;;2.10;99.90;;;;;;5033273;28;20058;-72
2023/12/07 11:37:09;;;;;;;39.53;18.67;;;1.50;99.90;;;;;;5028642;28;20037;-72
2023/12/07 11:39:36;;;;;;;35.40;20.02;;;1.50;99.90;;;;;;5035707;28;20075;-71
2023/12/07 11:42:31;;;;;;;34.33;19.15;;;1.50;99.90;;;;;;5044175;28;20044;-71
2023/12/07 11:44:57;;;;;;;30.30;19.00;;;1.50;99.90;;;;;;5024212;28;20107;-71
2023/12/07 11:47:22;;;;;;;51.35;20.13;;;1.60;99.90;;;;;;5050223;28;20037;-71
2023/12/07 11:49:48;;;;;;;34.42;21.25;;;1.50;99.90;;;;;;5053335;28;20036;-71
2023/12/07 11:52:20;;;;;;;40.40;20.60;;;1.60;99.90;;;;;;5039105;28;20587;-71
2023/12/07 11:54:47;;;;;;;47.83;20.15;;;1.60;99.90;;;;;;5026115;28;20033;-71
2023/12/07 11:57:17;;;;;;;44.20;21.27;;;1.60;99.90;;;;;;5034693;28;20032;-72
2023/12/07 11:59:49;;;;;;;40.20;22.35;;;1.60;99.90;;;;;;5053324;28;20037;-72
2023/12/07 12:02:15;;;;;;;51.15;22.63;;;1.70;99.90;;;;;;5053032;28;20064;-72
2023/12/07 12:04:41;;;;;;;46.85;21.60;;;1.70;99.90;;;;;;5035207;28;20087;-72
2023/12/07 12:07:07;;;;;;;42.75;21.13;;;1.80;99.90;;;;;;5051967;28;20509;-72
2023/12/07 12:09:34;;;;;;;38.15;21.55;;;1.80;99.90;;;;;;5051598;28;20439;-72
2023/12/07 12:12:00;;;;;;;48.63;20.83;;;1.70;99.90;;;;;;5037907;28;20044;-72
2023/12/07 12:14:27;;;;;;;38.50;21.33;;;1.70;99.90;;;;;;5053143;28;20043;-73
2023/12/07 12:16:53;;;;;;;35.25;19.75;;;1.70;99.90;;;;;;5051920;28;20753;-72
2023/12/07 12:19:19;;;;;;;37.33;20.33;;;1.70;99.90;;;;;;5035968;28;20037;-73
2023/12/07 12:21:45;;;;;;;49.03;21.08;;;1.80;99.90;;;;;;5052800;28;20090;-71
2023/12/07 12:24:11;;;;;;;38.80;19.80;;;1.80;99.90;;;;;;5053034;28;20445;-72
2023/12/07 12:26:40;;;;;;;41.53;21.63;;;1.80;99.90;;;;;;5037901;28;20036;-72
2023/12/07 12:29:08;;;;;;;41.17;20.23;;;1.80;99.90;;;;;;5053322;28;20124;-72
2023/12/07 12:31:34;;;;;;;54.95;22.25;;;1.80;99.90;;;;;;5041586;28;20044;-72
2023/12/07 12:34:05;;;;;;;43.85;20.75;;;1.80;99.90;;;;;;5052366;28;20044;-72